Time;durP1;ratioP1;P1;durP2;ratioP2;P2;SDS_P1;SDS_P2;PMS_P1;PMS_P2;Temp;Humidity;BMP_temperature;BMP_pressure;BME280_temperature;BME280_humidity;BME280_pressure;Samples;Min_cycle;Max_cycle;Signal;HPM_P1;HPM_P2
2022/10/17 00:00:25;;;;;;;10.57;7.93;;;;;;;8.89;100.00;101537.44;5092191;28;20028;-71
2022/10/17 00:02:50;;;;;;;11.60;8.07;;;;;;;9.07;100.00;101560.31;5091932;28;20024;-72
2022/10/17 00:05:16;;;;;;;12.35;7.82;;;;;;;8.98;100.00;101603.41;5073732;28;20489;-73
2022/10/17 00:07:41;;;;;;;11.55;7.47;;;;;;;9.03;100.00;101537.50;5092008;28;20138;-73
2022/10/17 00:10:07;;;;;;;9.63;7.60;;;;;;;9.06;100.00;101545.09;5092032;28;20027;-72
2022/10/17 00:12:34;;;;;;;18.55;8.60;;;;;;;9.31;100.00;101610.34;5092070;28;20088;-73
2022/10/17 00:14:59;;;;;;;12.27;7.95;;;;;;;9.24;100.00;101518.09;5091642;28;20035;-73
2022/10/17 00:17:24;;;;;;;13.55;8.45;;;;;;;8.28;100.00;101472.09;5091884;28;20032;-72
2022/10/17 00:19:50;;;;;;;13.13;8.18;;;;;;;8.75;100.00;101562.72;5073523;28;20024;-72
2022/10/17 00:22:15;;;;;;;13.55;8.35;;;;;;;8.79;100.00;101537.38;5073403;28;20111;-72
2022/10/17 00:24:41;;;;;;;10.48;7.80;;;;;;;9.06;100.00;101520.59;5091715;28;20026;-72
2022/10/17 00:27:06;;;;;;;13.23;9.07;;;;;;;8.80;100.00;101534.00;5091987;28;20493;-72
2022/10/17 00:29:32;;;;;;;13.30;8.73;;;;;;;9.29;100.00;101581.56;5073346;28;20174;-73
2022/10/17 00:31:57;;;;;;;13.23;8.82;;;;;;;9.32;100.00;101592.56;5091453;28;20497;-70
2022/10/17 00:34:24;;;;;;;13.13;8.65;;;;;;;8.54;100.00;101546.53;5091622;28;20136;-72
2022/10/17 00:36:49;;;;;;;14.95;8.80;;;;;;;8.45;100.00;101557.50;5073000;28;20109;-72
2022/10/17 00:39:15;;;;;;;14.63;8.65;;;;;;;8.72;100.00;101594.81;5072916;28;20115;-72
2022/10/17 00:41:40;;;;;;;13.10;8.65;;;;;;;8.34;100.00;101601.34;5091173;28;20052;-70
2022/10/17 00:44:28;;;;;;;16.77;8.63;;;;;;;8.34;100.00;101599.63;5091193;28;20024;-71
2022/10/17 00:46:58;;;;;;;12.88;8.65;;;;;;;8.51;100.00;101547.41;5090133;28;20483;-71
2022/10/17 00:49:26;;;;;;;13.77;8.70;;;;;;;8.67;100.00;101554.25;5091109;28;20040;-72
2022/10/17 00:51:54;;;;;;;15.30;9.00;;;;;;;8.68;100.00;101577.91;5090969;28;20059;-72
2022/10/17 00:54:27;;;;;;;13.77;8.30;;;;;;;8.23;100.00;101568.28;5090740;28;20107;-72
2022/10/17 00:56:53;;;;;;;10.18;7.60;;;;;;;8.40;100.00;101549.00;5091123;28;20038;-72
2022/10/17 00:59:21;;;;;;;14.15;7.70;;;;;;;8.70;100.00;101604.09;5091213;28;20413;-72
2022/10/17 01:02:00;;;;;;;11.52;7.30;;;;;;;8.55;100.00;101602.34;5091196;28;20031;-71
2022/10/17 01:04:26;;;;;;;10.85;7.40;;;;;;;8.90;100.00;101604.22;5091445;28;20056;-73
2022/10/17 01:06:51;;;;;;;14.43;8.05;;;;;;;8.92;100.00;101605.91;5090724;28;20075;-72
2022/10/17 01:09:17;;;;;;;10.55;7.45;;;;;;;8.83;100.00;101599.97;5090405;28;20405;-73
2022/10/17 01:12:10;;;;;;;11.68;7.03;;;;;;;9.20;100.00;101594.19;5072635;28;20032;-72
2022/10/17 01:14:39;;;;;;;11.77;7.53;;;;;;;9.11;100.00;101591.66;5072265;28;20028;-72
2022/10/17 01:17:07;;;;;;;11.15;7.32;;;;;;;9.05;100.00;101577.22;5090732;28;20478;-72
2022/10/17 01:19:50;;;;;;;11.93;7.22;;;;;;;8.40;100.00;101512.66;5090872;28;20085;-72
2022/10/17 01:22:19;;;;;;;10.07;7.22;;;;;;;8.94;100.00;101568.72;5072379;28;20460;-72
2022/10/17 01:24:47;;;;;;;11.10;6.85;;;;;;;8.66;100.00;101567.75;5091260;28;20383;-72
2022/10/17 01:27:31;;;;;;;9.88;6.28;;;;;;;9.13;100.00;101567.94;5072427;28;20248;-73
2022/10/17 01:30:12;;;;;;;10.93;5.97;;;;;;;9.13;100.00;101562.06;5090893;28;20025;-73
2022/10/17 01:32:53;;;;;;;10.45;6.72;;;;;;;8.73;100.00;101517.94;5090222;28;20032;-71
2022/10/17 01:35:22;;;;;;;;;;;;;;;8.91;100.00;101581.41;5091234;28;20127;-71
2022/10/17 01:37:51;;;;;;;8.85;6.43;;;;;;;8.67;100.00;101584.66;5090804;28;19916;-73
2022/10/17 01:40:24;;;;;;;9.18;6.38;;;;;;;7.88;100.00;101600.91;5090707;28;20044;-72
2022/10/17 01:42:58;;;;;;;12.77;6.10;;;;;;;7.59;100.00;101606.53;5072921;28;20032;-73
2022/10/17 01:45:26;;;;;;;9.25;6.35;;;;;;;7.34;100.00;101620.59;5072484;28;20032;-73
2022/10/17 01:47:55;;;;;;;8.98;6.22;;;;;;;6.54;100.00;101566.47;5072735;28;20039;-72
2022/10/17 01:50:36;;;;;;;10.73;6.15;;;;;;;6.52;100.00;101549.59;5090880;28;20020;-73
2022/10/17 01:53:10;;;;;;;12.40;6.60;;;;;;;6.94;100.00;101616.75;5090858;28;20096;-72
2022/10/17 01:55:40;;;;;;;9.45;6.22;;;;;;;6.64;100.00;101525.34;5072350;28;20132;-72
2022/10/17 01:58:11;;;;;;;9.40;6.53;;;;;;;7.28;100.00;101561.50;5090114;28;20039;-72
2022/10/17 02:00:41;;;;;;;10.63;6.30;;;;;;;7.36;100.00;101618.09;5090042;28;20035;-71
2022/10/17 02:03:12;;;;;;;10.15;6.88;;;;;;;6.73;100.00;101509.47;5090316;28;20111;-71
2022/10/17 02:05:40;;;;;;;9.23;6.18;;;;;;;7.27;100.00;101548.00;5089858;28;20494;-71
2022/10/17 02:08:06;;;;;;;10.05;6.43;;;;;;;7.68;100.00;101626.88;5090117;28;20032;-71
2022/10/17 02:10:34;;;;;;;13.00;6.90;;;;;;;7.57;100.00;101633.50;5072416;28;20089;-72
2022/10/17 02:13:05;;;;;;;12.80;6.78;;;;;;;7.56;100.00;101592.19;5089529;28;20111;-71
2022/10/17 02:15:55;;;;;;;10.30;6.68;;;;;;;7.26;100.00;101578.34;5094635;28;20027;-70
2022/10/17 02:18:58;;;;;;;11.27;6.72;;;;;;;7.61;100.00;101622.56;5092087;28;20034;-71
2022/10/17 02:21:30;;;;;;;11.57;7.43;;;;;;;7.37;100.00;101623.16;5073837;28;20036;-70
2022/10/17 02:24:04;;;;;;;6.07;4.68;;;;;;;8.09;100.00;101618.00;5095697;28;20039;-70
2022/10/17 02:27:05;;;;;;;12.13;7.00;;;;;;;8.11;100.00;101623.91;5114076;28;20111;-70
2022/10/17 02:29:37;;;;;;;9.80;6.88;;;;;;;7.70;100.00;101577.13;5074522;28;20052;-70
2022/10/17 02:32:16;;;;;;;14.02;7.38;;;;;;;7.56;100.00;101535.66;5095497;28;20020;-70
2022/10/17 02:34:49;;;;;;;12.07;7.03;;;;;;;7.93;100.00;101562.13;5095582;28;20084;-70
2022/10/17 02:37:18;;;;;;;13.65;6.82;;;;;;;7.64;100.00;101640.34;5113655;28;20023;-70
2022/10/17 02:39:46;;;;;;;12.15;6.53;;;;;;;8.06;100.00;101643.28;5113377;28;20035;-70
2022/10/17 02:42:14;;;;;;;12.68;7.35;;;;;;;7.40;100.00;101627.41;5113672;28;20031;-70
2022/10/17 02:44:43;;;;;;;10.55;6.78;;;;;;;7.63;100.00;101598.13;5095198;28;20032;-70
2022/10/17 02:47:17;;;;;;;10.80;6.88;;;;;;;7.25;100.00;101624.72;5113601;28;20509;-70
2022/10/17 02:49:48;;;;;;;9.00;7.18;;;;;;;6.52;100.00;101550.44;5113347;28;20039;-69
2022/10/17 02:52:18;;;;;;;10.47;7.03;;;;;;;7.32;100.00;101672.88;5113357;28;20055;-69
2022/10/17 02:55:01;;;;;;;9.50;7.10;;;;;;;7.41;100.00;101684.75;5113228;28;20049;-70
2022/10/17 02:57:39;;;;;;;11.27;7.32;;;;;;;7.21;100.00;101674.38;5113055;28;20420;-70
2022/10/17 03:00:09;;;;;;;15.40;7.82;;;;;;;7.05;100.00;101674.19;5113076;28;20028;-70
2022/10/17 03:02:46;;;;;;;11.70;8.05;;;;;;;6.91;100.00;101674.81;5113824;28;20497;-70
2022/10/17 03:05:13;;;;;;;15.70;9.20;;;;;;;6.90;100.00;101663.03;5113742;28;20031;-70
2022/10/17 03:07:39;;;;;;;26.98;18.13;;;;;;;7.04;100.00;101668.28;5113236;28;20062;-71
2022/10/17 03:10:05;;;;;;;30.90;20.83;;;;;;;6.87;100.00;101609.88;5113525;28;20110;-70
2022/10/17 03:12:30;;;;;;;31.30;22.05;;;;;;;7.00;100.00;101659.78;5113647;28;20118;-71
2022/10/17 03:14:56;;;;;;;33.85;22.10;;;;;;;7.38;100.00;101617.28;5113379;28;20028;-71
2022/10/17 03:17:21;;;;;;;35.13;23.35;;;;;;;6.86;100.00;101663.81;5113562;28;20063;-71
2022/10/17 03:19:46;;;;;;;37.28;23.17;;;;;;;6.52;100.00;101585.81;5112400;28;20070;-71
2022/10/17 03:22:12;;;;;;;35.95;23.52;;;;;;;7.11;100.00;101616.94;5113147;28;20084;-71
2022/10/17 03:24:37;;;;;;;39.28;24.98;;;;;;;7.10;100.00;101619.44;5112982;28;20038;-71
2022/10/17 03:27:03;;;;;;;39.83;25.25;;;;;;;7.20;100.00;101606.09;5094404;28;20032;-70
2022/10/17 03:29:28;;;;;;;40.58;26.52;;;;;;;7.64;100.00;101658.91;5112903;28;20066;-70
2022/10/17 03:31:53;;;;;;;38.15;25.60;;;;;;;7.21;100.00;101660.91;5111855;28;20058;-70
2022/10/17 03:34:19;;;;;;;33.70;23.20;;;;;;;7.77;100.00;101655.66;5093878;28;20084;-70
2022/10/17 03:36:45;;;;;;;33.78;22.48;;;;;;;7.61;100.00;101599.81;5094395;28;20035;-71
2022/10/17 03:39:10;;;;;;;36.45;22.73;;;;;;;6.96;100.00;101652.16;5113078;28;20085;-71
2022/10/17 03:41:35;;;;;;;37.35;20.95;;;;;;;7.09;100.00;101595.00;5112768;28;20043;-71
2022/10/17 03:44:01;;;;;;;27.30;19.90;;;;;;;7.12;100.00;101660.78;5112531;28;20130;-71
2022/10/17 03:46:26;;;;;;;29.55;18.58;;;;;;;7.62;100.00;101674.91;5112514;28;20063;-71
2022/10/17 03:48:52;;;;;;;25.92;16.65;;;;;;;7.49;100.00;101650.28;5112069;28;20035;-70
2022/10/17 03:51:18;;;;;;;23.85;15.65;;;;;;;7.17;100.00;101622.06;5112325;28;20084;-70
2022/10/17 03:53:43;;;;;;;17.92;12.60;;;;;;;6.81;100.00;101559.25;5112164;28;20024;-70
2022/10/17 03:56:14;;;;;;;18.52;12.70;;;;;;;7.17;100.00;101598.47;5112403;28;20030;-70
2022/10/17 03:58:41;;;;;;;17.83;11.93;;;;;;;7.15;100.00;101611.09;5093435;28;20031;-70
2022/10/17 04:01:09;;;;;;;18.58;12.32;;;;;;;7.13;100.00;101677.66;5111787;28;20027;-70
2022/10/17 04:03:35;;;;;;;17.35;12.30;;;;;;;7.17;100.00;101649.06;5112238;28;20035;-70
2022/10/17 04:06:03;;;;;;;18.20;11.68;;;;;;;7.16;100.00;101683.59;5111932;28;20027;-69
2022/10/17 04:08:29;;;;;;;21.30;12.85;;;;;;;6.86;100.00;101676.44;5111966;28;20490;-70
2022/10/17 04:11:07;;;;;;;20.70;12.48;;;;;;;7.21;100.00;101638.16;5111666;28;20494;-70
2022/10/17 04:13:33;;;;;;;19.92;12.27;;;;;;;7.72;100.00;101681.78;5111948;28;20027;-69
2022/10/17 04:16:05;;;;;;;17.67;11.73;;;;;;;6.95;100.00;101656.34;5111756;28;20122;-70
2022/10/17 04:18:31;;;;;;;17.63;11.77;;;;;;;7.44;100.00;101672.16;5111958;28;20028;-70
2022/10/17 04:20:56;;;;;;;18.60;10.73;;;;;;;7.53;100.00;101683.22;5111787;28;20031;-70
2022/10/17 04:23:22;;;;;;;17.35;10.68;;;;;;;7.47;100.00;101673.03;5111657;28;20037;-70
2022/10/17 04:25:48;;;;;;;14.70;9.52;;;;;;;7.82;100.00;101669.22;5111619;28;20180;-70
2022/10/17 04:28:14;;;;;;;18.70;9.50;;;;;;;7.80;100.00;101685.25;5111753;28;20023;-70
2022/10/17 04:30:39;;;;;;;19.27;10.18;;;;;;;7.49;100.00;101690.75;5111236;28;20032;-70
2022/10/17 04:33:05;;;;;;;18.05;9.77;;;;;;;6.88;100.00;101605.69;5111710;28;20039;-70
2022/10/17 04:35:30;;;;;;;16.38;8.15;;;;;;;7.12;100.00;101612.72;5093429;28;20030;-71
2022/10/17 04:37:56;;;;;;;15.18;8.27;;;;;;;7.54;100.00;101686.63;5111511;28;20073;-70
2022/10/17 04:40:21;;;;;;;16.85;8.88;;;;;;;7.10;100.00;101639.69;5111493;28;20040;-70
2022/10/17 04:42:47;;;;;;;13.95;8.50;;;;;;;7.61;100.00;101642.81;5111726;28;20030;-70
2022/10/17 04:45:12;;;;;;;14.70;8.07;;;;;;;7.35;100.00;101677.94;5111068;28;20028;-69
2022/10/17 04:47:37;;;;;;;14.20;8.43;;;;;;;7.54;100.00;101634.34;5110969;28;20518;-69
2022/10/17 04:50:04;;;;;;;14.55;8.65;;;;;;;7.93;100.00;101686.19;5111028;28;20015;-69
2022/10/17 04:52:30;;;;;;;18.52;8.90;;;;;;;7.49;100.00;101673.06;5111069;28;20032;-69
2022/10/17 04:54:56;;;;;;;20.25;9.18;;;;;;;7.50;100.00;101660.44;5111063;28;20470;-70
2022/10/17 04:57:21;;;;;;;18.85;9.13;;;;;;;7.71;100.00;101610.03;5110989;28;20038;-69
2022/10/17 04:59:47;;;;;;;22.55;9.80;;;;;;;8.56;100.00;101624.28;5110783;28;20019;-69
2022/10/17 05:02:12;;;;;;;25.52;10.40;;;;;;;10.40;100.00;101692.69;5111021;28;20354;-69
2022/10/17 05:04:38;;;;;;;25.05;10.60;;;;;;;10.28;100.00;101708.78;5111113;28;20123;-72
2022/10/17 05:07:03;;;;;;;24.77;9.88;;;;;;;9.32;100.00;101639.94;5111091;28;20027;-69
2022/10/17 05:09:29;;;;;;;22.80;9.50;;;;;;;8.43;100.00;101631.81;5110838;28;20126;-68
2022/10/17 05:11:54;;;;;;;19.05;9.13;;;;;;;8.64;100.00;101698.72;5110872;28;20040;-70
2022/10/17 05:14:20;;;;;;;20.38;10.27;;;;;;;8.94;100.00;101684.53;5110430;28;20074;-70
2022/10/17 05:16:45;;;;;;;25.80;11.48;;;;;;;10.48;100.00;101661.34;5092611;28;20529;-70
2022/10/17 05:19:11;;;;;;;26.10;10.73;;;;;;;12.69;100.00;101665.38;5092380;28;20072;-70
2022/10/17 05:21:37;;;;;;;26.77;10.50;;;;;;;12.96;100.00;101682.94;5110707;28;20024;-70
2022/10/17 05:24:12;;;;;;;17.33;7.55;;;;;;;13.24;100.00;101676.72;5110798;28;20486;-70
2022/10/17 05:26:38;;;;;;;17.67;7.90;;;;;;;14.24;89.85;101665.13;5110397;28;20120;-71
2022/10/17 05:29:04;;;;;;;15.05;6.53;;;;;;;15.37;84.96;101673.34;5110588;28;20499;-72
2022/10/17 05:31:30;;;;;;;11.95;6.50;;;;;;;15.33;82.13;101703.28;5110767;28;20099;-70
2022/10/17 05:34:00;;;;;;;13.60;6.30;;;;;;;16.03;77.91;101715.50;5110716;28;20115;-70
2022/10/17 05:36:25;;;;;;;14.77;6.55;;;;;;;16.25;74.12;101738.97;5110887;28;20032;-70
2022/10/17 05:38:51;;;;;;;14.30;6.40;;;;;;;16.06;73.08;101741.13;5110927;28;20030;-70
2022/10/17 05:41:18;;;;;;;8.73;5.60;;;;;;;14.56;83.69;101685.94;5091925;28;20134;-69
2022/10/17 05:43:43;;;;;;;9.55;5.63;;;;;;;16.54;71.59;101687.78;5110128;28;20036;-70
2022/10/17 05:46:09;;;;;;;8.93;5.25;;;;;;;16.30;78.90;101703.78;5092196;28;20034;-71
2022/10/17 05:48:35;;;;;;;10.63;5.55;;;;;;;16.89;68.31;101618.38;5110767;28;20077;-70
2022/10/17 05:51:03;;;;;;;15.02;5.80;;;;;;;17.56;63.39;101745.06;5110290;28;20407;-70
2022/10/17 05:53:31;;;;;;;9.43;5.45;;;;;;;17.09;70.55;101757.44;5092605;28;20126;-71
2022/10/17 05:55:58;;;;;;;8.40;4.85;;;;;;;16.78;80.12;101745.41;5094963;28;20032;-70
2022/10/17 05:58:23;;;;;;;7.72;5.10;;;;;;;15.42;89.61;101740.75;5114467;28;20057;-71
2022/10/17 06:00:49;;;;;;;7.65;4.28;;;;;;;13.39;100.00;101685.91;5114687;28;20498;-70
2022/10/17 06:03:14;;;;;;;10.15;4.43;;;;;;;13.66;100.00;101749.47;5114574;28;20549;-71
2022/10/17 06:05:39;;;;;;;7.60;4.40;;;;;;;14.01;100.00;101746.44;5114381;28;20028;-70
2022/10/17 06:08:05;;;;;;;7.82;4.35;;;;;;;13.29;100.00;101682.59;5113956;28;20032;-71
2022/10/17 06:10:30;;;;;;;9.73;4.00;;;;;;;14.02;100.00;101740.47;5114243;28;20030;-73
2022/10/17 06:12:56;;;;;;;8.45;4.20;;;;;;;13.86;100.00;101733.00;5096201;28;20028;-71
2022/10/17 06:15:21;;;;;;;6.38;3.63;;;;;;;13.65;100.00;101705.16;5114338;28;20019;-70
2022/10/17 06:17:47;;;;;;;6.18;3.70;;;;;;;14.51;100.00;101732.09;5096040;28;20024;-71
2022/10/17 06:20:12;;;;;;;4.90;3.67;;;;;;;14.67;100.00;101725.88;5114227;28;20035;-71
2022/10/17 06:22:37;;;;;;;9.57;4.30;;;;;;;14.84;100.00;101738.38;5095507;28;20435;-71
2022/10/17 06:25:03;;;;;;;4.55;3.72;;;;;;;14.83;100.00;101733.28;5095850;28;20031;-71
2022/10/17 06:27:29;;;;;;;6.88;3.42;;;;;;;14.71;100.00;101745.44;5113406;28;20048;-70
2022/10/17 06:29:54;;;;;;;6.65;4.20;;;;;;;14.73;100.00;101743.69;5095593;28;20429;-70
2022/10/17 06:32:19;;;;;;;7.63;4.10;;;;;;;15.02;100.00;101750.84;5113484;28;20467;-71
2022/10/17 06:34:45;;;;;;;7.05;4.05;;;;;;;14.89;100.00;101705.84;5113728;28;20101;-71
2022/10/17 06:37:10;;;;;;;5.57;3.63;;;;;;;15.62;98.27;101756.59;5113512;28;20451;-70
2022/10/17 06:39:36;;;;;;;7.43;3.97;;;;;;;14.80;100.00;101711.13;5113437;28;20473;-70
2022/10/17 06:42:03;;;;;;;6.10;4.07;;;;;;;15.15;99.48;101721.56;5094660;28;20044;-70
2022/10/17 06:44:30;;;;;;;7.82;4.50;;;;;;;15.47;98.57;101767.13;5113543;28;20038;-70
2022/10/17 06:46:57;;;;;;;5.63;3.88;;;;;;;15.63;99.71;101749.75;5113875;28;20032;-71
2022/10/17 06:49:23;;;;;;;6.85;3.78;;;;;;;15.39;99.78;101713.41;5113161;28;20036;-72
2022/10/17 06:51:48;;;;;;;6.60;3.47;;;;;;;16.40;95.34;101762.56;5113333;28;20039;-71
2022/10/17 06:54:14;;;;;;;4.32;3.25;;;;;;;15.80;94.28;101724.59;5113341;28;20019;-70
2022/10/17 06:56:40;;;;;;;6.07;3.38;;;;;;;16.03;94.38;101768.53;5112786;28;20069;-70
2022/10/17 06:59:05;;;;;;;4.15;3.40;;;;;;;15.91;95.34;101763.66;5113498;28;20035;-71
2022/10/17 07:01:31;;;;;;;4.68;3.72;;;;;;;16.17;91.88;101708.34;5112877;28;20456;-71
2022/10/17 07:03:57;;;;;;;8.52;3.25;;;;;;;16.00;91.42;101725.00;5113098;28;20027;-70
2022/10/17 07:06:23;;;;;;;4.78;3.10;;;;;;;16.11;90.43;101699.94;5111968;28;20417;-71
2022/10/17 07:08:49;;;;;;;7.10;3.17;;;;;;;16.15;91.66;101715.22;5112564;28;20027;-71
2022/10/17 07:11:18;;;;;;;5.80;3.40;;;;;;;16.21;95.37;101775.84;5112553;28;20036;-71
2022/10/17 07:13:44;;;;;;;5.28;3.10;;;;;;;16.27;91.43;101680.72;5112974;28;20023;-70
2022/10/17 07:16:10;;;;;;;8.73;3.17;;;;;;;16.46;89.49;101700.78;5112681;28;20023;-71
2022/10/17 07:18:36;;;;;;;5.00;3.15;;;;;;;16.80;89.85;101715.38;5112700;28;20059;-71
2022/10/17 07:21:02;;;;;;;4.75;3.20;;;;;;;16.86;90.36;101772.59;5112616;28;20110;-70
2022/10/17 07:23:28;;;;;;;7.68;3.40;;;;;;;17.15;91.49;101767.56;5112961;28;20074;-71
2022/10/17 07:26:05;;;;;;;7.13;3.22;;;;;;;16.81;88.36;101723.06;5112540;28;20445;-71
2022/10/17 07:28:31;;;;;;;5.80;3.50;;;;;;;17.00;84.93;101721.69;5112451;28;20073;-71
2022/10/17 07:31:10;;;;;;;9.60;4.25;;;;;;;16.75;82.14;101764.31;5094083;28;20271;-71
2022/10/17 07:33:35;;;;;;;6.03;3.53;;;;;;;17.42;77.50;101771.13;5112337;28;20028;-71
2022/10/17 07:36:03;;;;;;;5.68;3.28;;;;;;;17.33;79.05;101743.09;5112736;28;20020;-71
2022/10/17 07:38:28;;;;;;;5.38;3.30;;;;;;;17.66;76.85;101755.06;5112329;28;20023;-70
2022/10/17 07:40:59;;;;;;;4.28;3.20;;;;;;;17.67;74.54;101773.91;5094060;28;20088;-70
2022/10/17 07:43:26;;;;;;;5.13;3.10;;;;;;;17.72;72.80;101760.03;5112545;28;20028;-71
2022/10/17 07:45:51;;;;;;;6.82;3.00;;;;;;;17.80;77.07;101768.38;5094086;28;20077;-71
2022/10/17 07:48:18;;;;;;;6.28;3.00;;;;;;;17.39;83.74;101706.09;5094023;28;20035;-71
2022/10/17 07:50:43;;;;;;;4.68;2.70;;;;;;;17.43;86.83;101749.66;5111746;28;20096;-71
2022/10/17 07:53:08;;;;;;;4.13;2.63;;;;;;;17.62;86.90;101698.56;5112546;28;20395;-71
2022/10/17 07:55:36;;;;;;;5.47;3.03;;;;;;;17.59;82.71;101684.06;5112275;28;20123;-70
2022/10/17 07:58:02;;;;;;;6.45;2.83;;;;;;;17.57;84.19;101690.16;5093344;28;20027;-70
2022/10/17 08:00:27;;;;;;;3.38;3.00;;;;;;;17.71;85.15;101690.56;5112084;28;20080;-70
2022/10/17 08:02:53;;;;;;;6.95;2.90;;;;;;;17.74;83.26;101685.34;5112054;28;20035;-70
2022/10/17 08:05:18;;;;;;;3.92;2.70;;;;;;;18.01;82.33;101721.38;5111743;28;20463;-70
2022/10/17 08:07:43;;;;;;;5.03;2.70;;;;;;;18.33;80.54;101684.31;5093526;28;20632;-71
2022/10/17 08:10:11;;;;;;;5.35;2.90;;;;;;;18.54;81.48;101750.63;5112087;28;20122;-73
2022/10/17 08:12:37;;;;;;;7.30;2.75;;;;;;;18.29;81.89;101711.06;5111725;28;20024;-70
2022/10/17 08:15:04;;;;;;;4.07;2.60;;;;;;;18.15;82.54;101703.78;5111804;28;20119;-70
2022/10/17 08:17:29;;;;;;;6.18;2.80;;;;;;;18.17;81.07;101745.78;5092945;28;20028;-70
2022/10/17 08:19:55;;;;;;;4.65;2.67;;;;;;;18.74;78.88;101731.94;5111394;28;20038;-69
2022/10/17 08:22:20;;;;;;;5.95;2.95;;;;;;;18.62;76.58;101722.06;5111879;28;20031;-71
2022/10/17 08:24:46;;;;;;;4.53;2.65;;;;;;;18.49;75.73;101713.03;5093516;28;20034;-70
2022/10/17 08:27:12;;;;;;;5.32;2.78;;;;;;;18.53;75.23;101748.97;5092999;28;20416;-73
2022/10/17 08:29:41;;;;;;;3.95;2.83;;;;;;;19.25;72.94;101737.06;5093083;28;20034;-70
2022/10/17 08:32:08;;;;;;;7.00;3.22;;;;;;;19.08;71.11;101742.78;5111474;28;20027;-69
2022/10/17 08:34:33;;;;;;;5.57;2.97;;;;;;;19.15;71.31;101749.44;5111221;28;20031;-70
2022/10/17 08:36:59;;;;;;;5.18;3.13;;;;;;;19.61;71.45;101752.06;5111431;28;20027;-70
2022/10/17 08:39:24;;;;;;;5.10;2.70;;;;;;;19.45;69.64;101725.16;5110993;28;20031;-70
2022/10/17 08:42:07;;;;;;;6.40;2.65;;;;;;;19.89;67.79;101728.66;5111807;28;20039;-70
2022/10/17 08:45:07;;;;;;;12.48;3.10;;;;;;;19.75;68.48;101736.06;5111067;28;20544;-70
2022/10/17 08:47:41;;;;;;;7.07;2.80;;;;;;;19.99;67.50;101729.97;5107379;28;20051;-70
2022/10/17 08:50:13;;;;;;;6.25;2.67;;;;;;;19.61;66.94;101741.75;5110986;28;20038;-69
2022/10/17 08:52:41;;;;;;;3.88;2.45;;;;;;;19.94;66.68;101741.41;5111140;28;20028;-70
2022/10/17 08:55:33;;;;;;;6.30;2.70;;;;;;;20.00;65.05;101736.84;5111031;28;20030;-70
2022/10/17 08:57:58;;;;;;;4.43;2.70;;;;;;;20.15;63.56;101731.06;5111502;28;20490;-70
2022/10/17 09:00:27;;;;;;;6.75;2.80;;;;;;;20.36;66.48;101727.66;5110855;28;20110;-70
2022/10/17 09:03:11;;;;;;;4.43;2.90;;;;;;;20.49;67.79;101731.44;5110713;28;20024;-71
2022/10/17 09:06:16;;;;;;;5.40;2.80;;;;;;;19.94;68.17;101711.25;5110640;28;20031;-71
2022/10/17 09:09:09;;;;;;;7.68;2.80;;;;;;;20.43;66.72;101713.59;5088677;28;20071;-71
2022/10/17 09:11:52;;;;;;;6.97;3.33;;;;;;;20.05;68.10;101732.31;5110901;28;20494;-70
2022/10/17 09:14:33;;;;;;;7.00;2.83;;;;;;;20.16;67.65;101731.91;5110312;28;20031;-70
2022/10/17 09:17:13;;;;;;;5.22;2.83;;;;;;;20.26;66.72;101687.63;5110683;28;20020;-71
2022/10/17 09:19:53;;;;;;;6.85;2.90;;;;;;;20.58;65.41;101678.53;5110567;28;20105;-71
2022/10/17 09:22:24;;;;;;;6.82;2.80;;;;;;;21.18;62.33;101688.00;5110777;28;20497;-70
2022/10/17 09:25:02;;;;;;;5.95;3.00;;;;;;;21.31;61.21;101738.31;5110430;28;20035;-71
2022/10/17 09:27:30;;;;;;;9.82;2.78;;;;;;;21.68;62.34;101738.34;5110396;28;20136;-72
2022/10/17 09:30:14;;;;;;;9.88;3.20;;;;;;;20.80;63.02;101730.19;5111317;28;20039;-70
2022/10/17 09:32:41;;;;;;;4.38;2.60;;;;;;;20.14;67.82;101711.31;5096853;28;20038;-70
2022/10/17 09:35:12;;;;;;;6.18;3.10;;;;;;;20.02;70.73;101670.47;5096308;28;20023;-71
2022/10/17 09:37:37;;;;;;;6.07;2.97;;;;;;;20.38;73.10;101683.69;5115009;28;20039;-71
2022/10/17 09:40:07;;;;;;;6.82;3.15;;;;;;;20.48;70.51;101721.19;5114694;28;20043;-71
2022/10/17 09:42:34;;;;;;;6.82;3.25;;;;;;;20.19;71.90;101693.91;5114956;28;20455;-73
2022/10/17 09:45:00;;;;;;;6.32;3.63;;;;;;;20.36;72.80;101721.66;5114460;28;20110;-72
2022/10/17 09:47:40;;;;;;;5.40;2.95;;;;;;;20.64;71.82;101725.63;5114526;28;20118;-72
2022/10/17 09:50:19;;;;;;;5.00;3.13;;;;;;;19.73;75.16;101679.34;5096144;28;20031;-72
2022/10/17 09:52:47;;;;;;;7.10;3.00;;;;;;;19.95;76.71;101714.69;5114761;28;20137;-73
2022/10/17 09:55:36;;;;;;;10.45;3.15;;;;;;;19.91;78.78;101720.88;5114652;28;20035;-73
2022/10/17 09:58:04;;;;;;;6.95;3.38;;;;;;;19.54;83.71;101708.50;5095934;28;20027;-73
2022/10/17 10:00:36;;;;;;;7.88;3.47;;;;;;;20.48;79.69;101677.25;5114381;28;20028;-73
2022/10/17 10:03:21;;;;;;;5.22;3.38;;;;;;;20.95;74.11;101711.41;5114534;28;20019;-73
2022/10/17 10:06:02;;;;;;;9.60;3.75;;;;;;;20.59;69.95;101660.38;5114393;28;20057;-72
2022/10/17 10:08:34;;;;;;;6.85;3.42;;;;;;;20.56;70.47;101719.94;5095866;28;20035;-73
2022/10/17 10:11:05;;;;;;;11.32;3.30;;;;;;;21.46;64.90;101665.16;5095874;28;20493;-73
2022/10/17 10:13:33;;;;;;;6.50;3.17;;;;;;;21.54;64.81;101707.06;5114149;28;20023;-73
2022/10/17 10:16:23;;;;;;;8.85;3.40;;;;;;;22.23;61.02;101657.13;5114081;28;20032;-74
2022/10/17 10:18:49;;;;;;;4.88;3.40;;;;;;;21.59;63.01;101702.50;5114558;28;20424;-74
2022/10/17 10:21:20;;;;;;;5.78;3.30;;;;;;;21.65;64.74;101653.00;5096146;28;20032;-74
2022/10/17 10:24:10;;;;;;;5.53;3.38;;;;;;;21.07;71.21;101703.16;5114752;28;20450;-74
2022/10/17 10:26:38;;;;;;;8.10;3.60;;;;;;;21.33;67.37;101705.44;5114045;28;20039;-73
2022/10/17 10:29:30;;;;;;;6.30;3.50;;;;;;;22.22;61.92;101690.91;5113770;28;20032;-74
2022/10/17 10:32:10;;;;;;;5.60;3.00;;;;;;;21.10;64.20;101692.66;5114037;28;20051;-74
2022/10/17 10:34:41;;;;;;;8.07;3.53;;;;;;;20.13;68.70;101593.38;5095484;28;20034;-74
2022/10/17 10:37:23;;;;;;;5.38;3.20;;;;;;;21.19;66.75;101675.00;5095291;28;20039;-73
2022/10/17 10:39:56;;;;;;;7.43;2.95;;;;;;;21.44;64.57;101662.63;5112899;28;20436;-72
2022/10/17 10:42:26;;;;;;;4.78;3.05;;;;;;;21.19;61.64;101679.34;5113654;28;20119;-72
2022/10/17 10:44:56;;;;;;;5.72;3.05;;;;;;;21.12;62.11;101652.03;5095161;28;20543;-71
2022/10/17 10:47:25;;;;;;;6.22;2.90;;;;;;;21.10;63.34;101684.91;5094882;28;20032;-72
2022/10/17 10:50:14;;;;;;;6.93;2.97;;;;;;;21.54;61.17;101668.22;5113533;28;20028;-71
2022/10/17 10:52:54;;;;;;;7.25;3.25;;;;;;;21.89;60.81;101677.78;5113545;28;20034;-71
2022/10/17 10:55:31;;;;;;;6.75;3.25;;;;;;;21.17;60.82;101617.31;5113466;28;20023;-72
2022/10/17 10:58:02;;;;;;;6.32;3.33;;;;;;;22.44;58.47;101663.81;5113073;28;20032;-71
2022/10/17 11:00:31;;;;;;;5.50;2.78;;;;;;;21.95;58.37;101641.22;5113301;28;20115;-71
2022/10/17 11:03:22;;;;;;;6.13;2.78;;;;;;;22.00;59.45;101682.47;5112655;28;20024;-72
2022/10/17 11:06:03;;;;;;;8.90;3.15;;;;;;;22.10;60.00;101577.47;5095010;28;20058;-72
2022/10/17 11:08:44;;;;;;;9.07;3.22;;;;;;;20.58;65.40;101660.44;5094440;28;20026;-71
2022/10/17 11:11:16;;;;;;;;;;;;;;;22.05;58.24;101672.72;5113330;28;20568;-72
2022/10/17 11:13:57;;;;;;;7.15;2.97;;;;;;;22.16;56.21;101635.03;5113002;28;19930;-72
2022/10/17 11:16:53;;;;;;;5.28;3.10;;;;;;;22.62;55.45;101658.69;5094590;28;20030;-72
2022/10/17 11:19:34;;;;;;;4.63;3.00;;;;;;;23.02;54.78;101656.53;5077018;28;20187;-71
2022/10/17 11:22:17;;;;;;;6.15;3.10;;;;;;;23.44;53.73;101644.78;5113229;28;20054;-74
2022/10/17 11:24:56;;;;;;;5.63;3.08;;;;;;;21.99;55.84;101613.41;5112824;28;20257;-72
2022/10/17 11:27:28;;;;;;;5.25;2.92;;;;;;;22.90;56.07;101648.53;5094208;28;20028;-72
2022/10/17 11:29:54;;;;;;;9.57;3.35;;;;;;;22.26;54.52;101596.53;5112650;28;20032;-71
2022/10/17 11:32:36;;;;;;;6.70;3.50;;;;;;;22.05;55.84;101589.81;5082920;28;20063;-73